Time;durP1;ratioP1;P1;durP2;ratioP2;P2;SDS_P1;SDS_P2;PMS_P1;PMS_P2;Temp;Humidity;BMP_temperature;BMP_pressure;BME280_temperature;BME280_humidity;BME280_pressure;Samples;Min_cycle;Max_cycle;Signal;HPM_P1;HPM_P2
2024/04/19 00:01:52;;;;;;;1.00;0.90;;;;;;;13.31;53.63;98225.60;106910;1270;74711;-67
2024/04/19 00:04:20;;;;;;;1.30;1.20;;;;;;;13.47;53.14;98227.64;106851;1271;69025;-68
2024/04/19 00:06:50;;;;;;;0.80;0.80;;;;;;;13.55;53.08;98231.96;106991;1274;72980;-68
2024/04/19 00:09:17;;;;;;;0.80;0.80;;;;;;;13.64;52.70;98233.71;106953;1270;61282;-69
2024/04/19 00:11:46;;;;;;;1.20;0.90;;;;;;;13.57;52.81;98236.88;106978;1274;61348;-69
2024/04/19 00:14:14;;;;;;;2.20;0.70;;;;;;;13.45;53.32;98238.38;107050;1270;75030;-69
2024/04/19 00:16:42;;;;;;;1.10;0.80;;;;;;;13.57;53.01;98240.21;107036;1270;69102;-69
2024/04/19 00:19:09;;;;;;;0.80;0.70;;;;;;;13.44;53.31;98241.98;107057;1270;72711;-68
2024/04/19 00:21:36;;;;;;;1.40;1.00;;;;;;;13.53;53.04;98236.69;106990;1274;61171;-68
2024/04/19 00:24:04;;;;;;;2.40;0.80;;;;;;;13.67;52.70;98235.02;107029;1270;60545;-68
2024/04/19 00:26:32;;;;;;;0.50;0.50;;;;;;;13.65;52.87;98232.77;106985;1275;75141;-67
2024/04/19 00:28:59;;;;;;;0.90;0.80;;;;;;;13.70;52.71;98231.48;107085;1274;72704;-67
2024/04/19 00:31:27;;;;;;;0.90;0.90;;;;;;;13.68;52.73;98229.92;107008;1270;71192;-67
2024/04/19 00:33:54;;;;;;;0.80;0.80;;;;;;;13.62;52.91;98230.01;107136;1270;61202;-69
2024/04/19 00:36:22;;;;;;;1.00;0.90;;;;;;;13.40;53.29;98229.77;107094;1270;61156;-69
2024/04/19 00:38:53;;;;;;;0.80;0.80;;;;;;;13.55;53.20;98230.73;107003;1270;74118;-69
2024/04/19 00:41:20;;;;;;;1.90;0.70;;;;;;;13.59;53.00;98231.82;106886;1270;69255;-69
2024/04/19 00:43:47;;;;;;;0.90;0.90;;;;;;;13.63;52.87;98230.48;106921;1270;72497;-69
2024/04/19 00:46:14;;;;;;;1.50;1.00;;;;;;;13.50;53.33;98235.21;106934;1270;60108;-67
2024/04/19 00:48:42;;;;;;;0.70;0.70;;;;;;;13.60;53.18;98238.61;107004;1271;61463;-70
2024/04/19 00:51:09;;;;;;;2.10;1.00;;;;;;;13.56;53.23;98240.66;106742;1270;74602;-68
2024/04/19 00:53:36;;;;;;;1.40;1.00;;;;;;;13.49;53.49;98239.98;107001;1270;70179;-69
2024/04/19 00:56:23;;;;;;;1.30;0.90;;;;;;;13.38;53.55;98244.42;107105;1270;72728;-69
2024/04/19 00:58:50;;;;;;;0.90;0.90;;;;;;;13.33;53.65;98243.56;107090;1269;61230;-69
2024/04/19 01:01:17;;;;;;;0.70;0.70;;;;;;;13.39;53.44;98249.61;107020;1270;61142;-69
2024/04/19 01:03:45;;;;;;;0.90;0.90;;;;;;;13.36;53.45;98253.19;107020;1275;74673;-68
2024/04/19 01:06:12;;;;;;;0.70;0.60;;;;;;;13.33;53.45;98254.17;107093;1270;69967;-69
2024/04/19 01:08:39;;;;;;;1.20;0.80;;;;;;;13.27;53.52;98257.19;106992;1271;72955;-70
2024/04/19 01:11:27;;;;;;;0.90;0.90;;;;;;;13.42;53.23;98261.70;106977;1274;61513;-68
2024/04/19 01:13:54;;;;;;;1.00;0.70;;;;;;;13.51;53.17;98263.13;106968;1270;60154;-69
2024/04/19 01:16:21;;;;;;;0.70;0.70;;;;;;;13.45;53.09;98269.41;106899;1269;74591;-69
2024/04/19 01:18:52;;;;;;;1.10;1.00;;;;;;;13.26;53.31;98271.80;106997;1270;69258;-69
2024/04/19 01:21:20;;;;;;;0.90;0.90;;;;;;;13.48;52.79;98269.86;106906;1275;71273;-68
2024/04/19 01:23:49;;;;;;;2.20;0.70;;;;;;;13.45;52.72;98274.70;106999;1276;61185;-69
2024/04/19 01:26:17;;;;;;;0.70;0.70;;;;;;;13.32;52.84;98275.52;107082;1270;61182;-69
2024/04/19 01:28:45;;;;;;;0.70;0.70;;;;;;;13.37;52.78;98277.29;107027;1270;74610;-68
2024/04/19 01:31:12;;;;;;;0.70;0.70;;;;;;;13.18;53.21;98281.67;106996;1270;70280;-68
2024/04/19 01:33:39;;;;;;;0.90;0.80;;;;;;;13.19;53.36;98278.97;106975;1270;72450;-69
2024/04/19 01:36:07;;;;;;;0.90;0.80;;;;;;;13.17;53.30;98277.18;106922;1276;61565;-70
2024/04/19 01:38:46;;;;;;;0.70;0.70;;;;;;;13.27;53.39;98278.42;107009;1269;61278;-68
2024/04/19 01:41:14;;;;;;;0.80;0.80;;;;;;;13.25;53.36;98281.36;107080;1269;74729;-70
2024/04/19 01:43:42;;;;;;;1.40;0.80;;;;;;;13.31;53.21;98280.89;106961;1270;70326;-69
2024/04/19 01:46:10;;;;;;;1.10;0.80;;;;;;;13.29;53.42;98282.83;107092;1270;73143;-71
2024/04/19 01:48:37;;;;;;;2.60;1.00;;;;;;;13.35;53.28;98280.80;107025;1273;61188;-68
2024/04/19 01:51:04;;;;;;;1.70;0.90;;;;;;;13.30;53.48;98282.52;107015;1270;62028;-68
2024/04/19 01:53:33;;;;;;;1.70;1.10;;;;;;;13.26;53.89;98284.07;107026;1270;74723;-70
2024/04/19 01:56:00;;;;;;;0.90;0.90;;;;;;;13.32;53.55;98288.78;106940;1270;70487;-68
2024/04/19 01:58:40;;;;;;;1.30;1.20;;;;;;;13.36;53.69;98292.90;106965;1270;71757;-69
2024/04/19 02:01:07;;;;;;;1.10;1.00;;;;;;;13.42;53.51;98290.80;106957;1270;59950;-70
2024/04/19 02:03:38;;;;;;;1.20;1.10;;;;;;;13.32;53.69;98292.62;106733;1270;61099;-68
2024/04/19 02:06:14;;;;;;;1.20;1.10;;;;;;;13.47;53.61;98293.42;107033;1270;73519;-70
2024/04/19 02:08:42;;;;;;;1.20;1.10;;;;;;;13.41;53.57;98297.20;106923;1270;69063;-67
2024/04/19 02:11:09;;;;;;;1.10;1.00;;;;;;;13.34;53.57;98301.10;106975;1270;72697;-70
2024/04/19 02:13:37;;;;;;;1.80;1.00;;;;;;;13.35;53.81;98302.43;106899;1274;61128;-71
2024/04/19 02:16:05;;;;;;;1.40;0.90;;;;;;;13.47;53.46;98307.00;107017;1270;61310;-69
2024/04/19 02:18:32;;;;;;;1.60;1.00;;;;;;;13.68;53.11;98307.10;107038;1269;76700;-68
2024/04/19 02:21:00;;;;;;;1.90;0.90;;;;;;;13.66;53.14;98304.98;107071;1270;69488;-69
2024/04/19 02:23:37;;;;;;;1.30;1.20;;;;;;;13.46;53.49;98311.64;106861;1274;72853;-68
2024/04/19 02:26:04;;;;;;;2.30;1.10;;;;;;;13.47;53.53;98313.89;106904;1270;61288;-69
2024/04/19 02:31:23;;;;;;;2.80;1.10;;;;;;;13.50;53.48;98316.27;107014;1274;72586;-69
2024/04/19 02:33:50;;;;;;;2.70;1.40;;;;;;;13.54;53.53;98319.08;106999;1270;69483;-70
2024/04/19 02:36:18;;;;;;;1.50;1.10;;;;;;;13.65;53.38;98317.95;106975;1270;73650;-70
2024/04/19 02:38:45;;;;;;;1.80;1.20;;;;;;;13.65;53.43;98325.13;107013;1271;61121;-69
2024/04/19 02:41:12;;;;;;;2.30;1.50;;;;;;;13.65;53.48;98325.00;107009;1269;61171;-67
2024/04/19 02:43:43;;;;;;;1.10;1.00;;;;;;;13.50;53.74;98329.17;107001;1271;74659;-67
2024/04/19 02:46:11;;;;;;;;;;;;;;;13.59;53.70;98332.84;107124;1270;68774;-69
2024/04/19 02:48:38;;;;;;;1.70;1.20;;;;;;;13.56;53.79;98336.60;106995;1270;71539;-70
2024/04/19 02:51:05;;;;;;;1.60;1.20;;;;;;;13.27;54.39;98339.20;106958;1276;61157;-69
2024/04/19 02:53:33;;;;;;;1.30;1.20;;;;;;;13.37;54.18;98336.48;106973;1270;61274;-69
2024/04/19 02:56:01;;;;;;;1.30;1.20;;;;;;;13.38;53.99;98345.03;106998;1270;73746;-70
2024/04/19 02:58:29;;;;;;;1.70;1.60;;;;;;;13.41;54.12;98348.17;106946;1270;69033;-69
2024/04/19 03:00:56;;;;;;;1.80;1.60;;;;;;;13.59;53.73;98351.16;106930;1270;72956;-69
2024/04/19 03:03:24;;;;;;;1.90;1.50;;;;;;;13.69;53.44;98355.88;106940;1270;60886;-69
2024/04/19 03:05:54;;;;;;;2.60;1.90;;;;;;;13.85;53.21;98359.39;107044;1270;61099;-70
2024/04/19 03:08:23;;;;;;;4.70;2.70;;;;;;;13.80;53.23;98362.10;106976;1270;73520;-68
2024/04/19 03:10:50;;;;;;;5.30;2.60;;;;;;;13.68;53.44;98359.64;107021;1270;69065;-68
2024/04/19 03:13:18;;;;;;;5.40;2.90;;;;;;;13.51;53.95;98362.40;106999;1274;72729;-70
2024/04/19 03:15:45;;;;;;;4.90;2.10;;;;;;;13.36;54.34;98366.91;106976;1270;61368;-69
2024/04/19 03:18:32;;;;;;;3.10;2.20;;;;;;;13.31;54.52;98368.29;106958;1270;61163;-69
2024/04/19 03:21:00;;;;;;;2.70;2.00;;;;;;;13.66;53.69;98366.92;106866;1270;73469;-69
2024/04/19 03:23:27;;;;;;;2.70;1.70;;;;;;;13.74;53.59;98372.97;106806;1276;70185;-69
2024/04/19 03:26:02;;;;;;;4.20;2.40;;;;;;;13.91;53.30;98379.76;107045;1269;72736;-68
2024/04/19 03:28:29;;;;;;;2.40;1.80;;;;;;;14.01;53.00;98387.23;107013;1270;61253;-68
2024/04/19 03:30:56;;;;;;;2.60;1.70;;;;;;;13.80;53.29;98395.20;107023;1270;60929;-68
2024/04/19 03:33:24;;;;;;;3.10;1.90;;;;;;;13.91;53.22;98396.98;107014;1270;73525;-68
2024/04/19 03:35:51;;;;;;;2.50;1.70;;;;;;;13.70;53.39;98401.66;107071;1270;69338;-70
2024/04/19 03:38:20;;;;;;;2.80;1.80;;;;;;;13.99;52.88;98408.86;106993;1270;71494;-67
2024/04/19 03:40:54;;;;;;;1.80;1.60;;;;;;;14.07;52.80;98402.68;107085;1270;61134;-69
2024/04/19 03:43:23;;;;;;;1.30;1.20;;;;;;;14.18;52.31;98412.02;107041;1270;61532;-68
2024/04/19 03:45:51;;;;;;;1.60;1.50;;;;;;;14.38;51.81;98413.63;107101;1270;74449;-68
2024/04/19 03:48:19;;;;;;;1.50;1.40;;;;;;;14.39;51.46;98417.73;106972;1270;72849;-69
2024/04/19 03:50:47;;;;;;;2.00;1.30;;;;;;;14.34;51.13;98422.21;106953;1271;71466;-68
2024/04/19 03:53:14;;;;;;;1.90;1.30;;;;;;;14.45;50.98;98420.82;106987;1269;61151;-69
2024/04/19 03:55:42;;;;;;;1.40;1.30;;;;;;;14.23;51.27;98427.54;107061;1270;60444;-69
2024/04/19 03:58:09;;;;;;;1.60;1.40;;;;;;;14.16;51.36;98430.93;107001;1270;74691;-69
2024/04/19 04:00:39;;;;;;;2.00;1.80;;;;;;;14.08;51.50;98430.14;106946;1270;72699;-68
2024/04/19 04:03:06;;;;;;;1.70;1.40;;;;;;;14.06;51.58;98433.58;106914;1270;73014;-70
2024/04/19 04:05:38;;;;;;;1.70;1.50;;;;;;;14.30;51.12;98435.77;106937;1268;61226;-70
2024/04/19 04:08:06;;;;;;;2.90;1.50;;;;;;;14.11;51.23;98448.05;106982;1270;59176;-69
2024/04/19 04:10:34;;;;;;;1.30;1.10;;;;;;;14.32;50.89;98452.58;107117;1270;73800;-69
2024/04/19 04:13:02;;;;;;;2.50;1.60;;;;;;;14.34;50.85;98454.68;107165;1270;70339;-69
2024/04/19 04:15:29;;;;;;;2.20;1.40;;;;;;;14.18;51.39;98452.25;107066;1270;72798;-69
2024/04/19 04:17:57;;;;;;;1.60;1.40;;;;;;;14.30;51.21;98457.50;107006;1270;61214;-69
2024/04/19 04:20:24;;;;;;;2.50;1.30;;;;;;;14.24;51.28;98457.94;107013;1270;60129;-68
2024/04/19 04:22:52;;;;;;;1.30;1.20;;;;;;;13.97;51.57;98458.61;106977;1270;73654;-69
2024/04/19 04:25:19;;;;;;;2.70;1.40;;;;;;;14.13;51.12;98458.27;106918;1276;69183;-70
2024/04/19 04:27:46;;;;;;;1.40;1.30;;;;;;;14.26;51.00;98467.68;106924;1270;72039;-69
2024/04/19 04:30:14;;;;;;;3.20;1.70;;;;;;;14.45;50.85;98471.11;106984;1270;61153;-69
2024/04/19 04:32:42;;;;;;;3.40;1.70;;;;;;;14.63;50.67;98477.90;107069;1270;61179;-67
2024/04/19 04:35:10;;;;;;;2.30;1.50;;;;;;;14.59;50.64;98488.02;107024;1270;73441;-69
2024/04/19 04:37:38;;;;;;;1.70;1.50;;;;;;;14.71;50.49;98491.88;106946;1270;70162;-70
2024/04/19 04:40:06;;;;;;;2.90;1.90;;;;;;;14.69;50.44;98498.60;106876;1271;73011;-69
2024/04/19 04:42:33;;;;;;;2.20;1.70;;;;;;;14.61;50.93;98495.11;106958;1275;60849;-70
2024/04/19 04:45:06;;;;;;;2.70;2.30;;;;;;;14.75;50.82;98489.61;107022;1270;60951;-69
2024/04/19 04:47:33;;;;;;;4.10;2.80;;;;;;;14.77;51.15;98489.59;107007;1270;73298;-70
2024/04/19 04:50:00;;;;;;;4.50;2.90;;;;;;;14.84;51.25;98490.29;107057;1270;71142;-69
2024/04/19 04:52:28;;;;;;;3.90;2.90;;;;;;;15.02;51.08;98497.75;107007;1270;72843;-69
2024/04/19 05:08:04;;;;;;;6.20;3.40;;;;;;;14.71;52.56;98521.73;105367;1283;614170;-70
2024/04/19 05:10:31;;;;;;;5.00;3.60;;;;;;;15.27;50.93;98524.98;107045;1267;142477;-70
2024/04/19 05:12:58;;;;;;;6.90;3.80;;;;;;;15.24;50.94;98529.30;107128;1267;59456;-70
2024/04/19 05:15:26;;;;;;;7.80;4.00;;;;;;;15.27;51.25;98530.33;107245;1268;73176;-68
2024/04/19 05:17:53;;;;;;;5.00;3.80;;;;;;;15.55;50.64;98532.27;107256;1270;70314;-69
2024/04/19 05:20:22;;;;;;;7.70;4.20;;;;;;;15.55;49.94;98540.35;107148;1269;72694;-69
2024/04/19 05:22:49;;;;;;;4.90;3.90;;;;;;;15.64;49.28;98540.00;107078;1268;60113;-67
2024/04/19 05:25:19;;;;;;;6.70;4.00;;;;;;;15.61;49.70;98547.85;107141;1266;60095;-69
2024/04/19 05:27:46;;;;;;;5.10;4.30;;;;;;;15.65;49.52;98550.36;107286;1264;71855;-70
2024/04/19 05:30:14;;;;;;;6.20;4.20;;;;;;;15.78;49.50;98555.67;107279;1268;69926;-70
2024/04/19 05:32:41;;;;;;;7.60;4.60;;;;;;;16.41;49.30;98558.13;107260;1266;71723;-69
2024/04/19 05:35:08;;;;;;;5.80;3.90;;;;;;;16.81;48.25;98561.91;107299;1267;59531;-70
2024/04/19 05:37:37;;;;;;;5.30;3.80;;;;;;;17.13;47.92;98566.07;107231;1264;60550;-70
2024/04/19 05:40:05;;;;;;;6.10;3.90;;;;;;;17.04;47.08;98568.42;107318;1267;76014;-68
2024/04/19 05:42:32;;;;;;;4.10;3.00;;;;;;;17.18;46.72;98574.68;107265;1264;69032;-72
2024/04/19 05:45:02;;;;;;;4.40;3.00;;;;;;;17.49;46.15;98576.09;107337;1263;72964;-70
2024/04/19 05:47:29;;;;;;;5.90;3.30;;;;;;;17.99;45.44;98577.48;107356;1263;61659;-71
2024/04/19 05:49:57;;;;;;;4.20;2.70;;;;;;;18.43;44.97;98588.06;107394;1262;60391;-69
2024/04/19 05:52:24;;;;;;;3.40;2.90;;;;;;;18.45;44.16;98589.68;107497;1267;73930;-69
2024/04/19 05:54:51;;;;;;;4.30;2.80;;;;;;;18.42;43.83;98592.46;107373;1264;70323;-70
2024/04/19 05:57:19;;;;;;;4.70;3.20;;;;;;;18.22;43.68;98597.05;107376;1264;72465;-70
2024/04/19 05:59:46;;;;;;;4.10;2.70;;;;;;;18.00;43.86;98609.50;107308;1264;60697;-69
2024/04/19 06:02:13;;;;;;;3.60;2.80;;;;;;;17.68;44.27;98612.68;107246;1268;60361;-69
2024/04/19 06:04:41;;;;;;;4.50;3.20;;;;;;;17.98;44.26;98620.53;107245;1269;73057;-70
2024/04/19 06:07:09;;;;;;;3.80;2.70;;;;;;;18.16;43.86;98626.80;107251;1264;69593;-67
2024/04/19 06:09:36;;;;;;;3.70;3.00;;;;;;;18.11;43.54;98625.52;107252;1269;74674;-70
2024/04/19 06:12:04;;;;;;;5.40;3.40;;;;;;;17.93;42.90;98639.30;107318;1265;60993;-69
2024/04/19 06:14:31;;;;;;;6.80;2.80;;;;;;;17.77;42.99;98638.41;107356;1262;61161;-69
2024/04/19 06:16:58;;;;;;;6.80;3.90;;;;;;;17.93;43.13;98638.02;107387;1262;73126;-69
2024/04/19 06:19:26;;;;;;;3.90;3.00;;;;;;;18.13;42.96;98646.16;107321;1262;69229;-70
2024/04/19 06:21:53;;;;;;;5.60;3.20;;;;;;;18.29;42.35;98649.97;107345;1265;72072;-70
2024/04/19 06:24:24;;;;;;;6.30;4.00;;;;;;;18.22;42.23;98651.38;107359;1268;60443;-69
2024/04/19 06:26:52;;;;;;;3.80;2.60;;;;;;;18.06;43.01;98662.58;107336;1268;60603;-69
2024/04/19 06:29:19;;;;;;;8.00;3.80;;;;;;;18.06;42.60;98665.23;107311;1266;76582;-69
2024/04/19 06:31:46;;;;;;;11.10;4.10;;;;;;;17.98;42.91;98672.89;107225;1269;70094;-68
2024/04/19 06:34:14;;;;;;;7.90;4.00;;;;;;;17.82;42.73;98676.92;107304;1263;71521;-68
2024/04/19 06:36:41;;;;;;;5.30;3.40;;;;;;;17.92;42.43;98685.10;107269;1263;63705;-69
2024/04/19 06:39:18;;;;;;;5.20;3.70;;;;;;;17.68;42.71;98682.89;107290;1268;60420;-69
2024/04/19 06:41:46;;;;;;;5.80;3.40;;;;;;;17.81;42.64;98690.41;107336;1263;73689;-69
2024/04/19 06:44:13;;;;;;;5.10;3.50;;;;;;;17.76;42.61;98694.55;107266;1263;69315;-69
2024/04/19 06:46:41;;;;;;;6.10;4.40;;;;;;;17.56;42.55;98697.71;107295;1263;74911;-69
2024/04/19 06:49:09;;;;;;;9.10;3.80;;;;;;;17.53;42.61;98697.45;107237;1270;61478;-69
2024/04/19 06:51:37;;;;;;;5.30;3.90;;;;;;;17.48;42.96;98694.41;107281;1263;61938;-69
2024/04/19 06:54:08;;;;;;;7.20;3.10;;;;;;;17.68;42.15;98701.67;107284;1263;75246;-69
2024/04/19 06:56:35;;;;;;;7.20;3.50;;;;;;;17.51;41.83;98704.23;107275;1268;68623;-69
2024/04/19 06:59:02;;;;;;;5.50;3.60;;;;;;;17.65;41.66;98713.25;107355;1263;72227;-69
2024/04/19 07:01:32;;;;;;;4.30;2.90;;;;;;;17.74;41.50;98714.38;107387;1266;60498;-69
2024/04/19 07:04:00;;;;;;;4.00;3.10;;;;;;;17.88;41.15;98717.84;107287;1263;60428;-69
2024/04/19 07:06:27;;;;;;;10.40;3.50;;;;;;;18.02;40.65;98722.63;107275;1269;75820;-70
2024/04/19 07:09:10;;;;;;;4.00;3.00;;;;;;;18.22;40.44;98727.39;107327;1262;69964;-69
2024/04/19 07:11:37;;;;;;;7.30;3.40;;;;;;;18.38;40.24;98728.03;107229;1267;71844;-70
2024/04/19 07:14:05;;;;;;;3.90;3.10;;;;;;;18.38;40.05;98735.32;107336;1262;60550;-68
2024/04/19 07:16:32;;;;;;;3.50;3.00;;;;;;;18.76;39.23;98735.03;107343;1262;62298;-70
2024/04/19 07:19:01;;;;;;;4.80;2.70;;;;;;;18.65;38.51;98749.25;107429;1264;72576;-69
2024/04/19 07:21:29;;;;;;;5.80;2.80;;;;;;;18.44;39.03;98751.09;107407;1265;70525;-69
2024/04/19 07:23:56;;;;;;;3.80;2.90;;;;;;;18.88;39.14;98752.64;107514;1263;74399;-69
2024/04/19 07:26:25;;;;;;;5.50;2.90;;;;;;;19.28;37.83;98757.38;107467;1261;60571;-70
2024/04/19 07:28:54;;;;;;;4.90;2.80;;;;;;;19.47;37.34;98762.65;107512;1266;61654;-70
2024/04/19 07:31:21;;;;;;;3.90;2.70;;;;;;;19.51;37.37;98770.70;107552;1265;72214;-70
2024/04/19 07:33:49;;;;;;;5.30;3.00;;;;;;;19.56;37.07;98772.52;107441;1263;72634;-68
2024/04/19 07:36:16;;;;;;;3.70;2.80;;;;;;;20.01;36.77;98778.53;107431;1264;71871;-70
2024/04/19 07:38:44;;;;;;;9.30;2.80;;;;;;;19.91;35.93;98782.70;107350;1264;60425;-71
2024/04/19 07:41:11;;;;;;;8.10;2.90;;;;;;;19.98;36.28;98791.88;107378;1264;60353;-70
2024/04/19 07:43:40;;;;;;;6.70;2.60;;;;;;;19.31;36.70;98794.27;107391;1264;76033;-69
2024/04/19 07:46:18;;;;;;;2.80;2.40;;;;;;;19.39;36.88;98804.05;107463;1262;72600;-70
2024/04/19 07:48:46;;;;;;;6.60;3.00;;;;;;;19.41;36.12;98801.84;107359;1264;72799;-71
2024/04/19 07:51:13;;;;;;;4.10;2.90;;;;;;;19.47;36.35;98810.01;107558;1259;60407;-70
2024/04/19 07:53:41;;;;;;;4.20;2.90;;;;;;;19.19;36.72;98818.17;107618;1260;60307;-69
2024/04/19 07:56:08;;;;;;;3.80;2.70;;;;;;;19.44;36.70;98817.41;107642;1257;74065;-68
2024/04/19 07:58:35;;;;;;;5.90;2.70;;;;;;;19.51;36.69;98815.36;107631;1257;70497;-69
2024/04/19 08:01:04;;;;;;;4.30;2.80;;;;;;;19.41;36.81;98830.17;107586;1257;72796;-68
2024/04/19 08:03:32;;;;;;;3.70;2.80;;;;;;;19.14;36.72;98835.04;107573;1257;61027;-68
2024/04/19 08:05:59;;;;;;;4.10;2.60;;;;;;;19.06;37.00;98842.34;107635;1260;62156;-69
2024/04/19 08:08:27;;;;;;;6.10;2.90;;;;;;;18.64;37.41;98854.21;107561;1257;73979;-67
2024/04/19 08:10:54;;;;;;;5.70;2.60;;;;;;;18.54;37.98;98862.70;107592;1258;69130;-70
2024/04/19 08:13:24;;;;;;;4.60;2.60;;;;;;;18.16;38.95;98869.27;107585;1258;73725;-67
2024/04/19 08:15:51;;;;;;;5.90;3.00;;;;;;;17.61;39.85;98877.40;107612;1257;60560;-69
2024/04/19 08:18:19;;;;;;;5.60;3.20;;;;;;;17.53;40.35;98891.63;107586;1258;60336;-69
2024/04/19 08:20:46;;;;;;;5.80;3.00;;;;;;;17.44;40.47;98898.23;107813;1257;76089;-69
2024/04/19 08:23:14;;;;;;;4.10;3.20;;;;;;;17.61;40.50;98899.81;107792;1262;68815;-70
2024/04/19 08:25:44;;;;;;;3.70;3.00;;;;;;;18.25;39.48;98894.63;107736;1258;72195;-69
2024/04/19 08:28:12;;;;;;;6.70;3.10;;;;;;;18.37;39.11;98897.77;107590;1259;63021;-69
2024/04/19 08:30:40;;;;;;;3.90;3.10;;;;;;;18.40;39.10;98900.02;107648;1257;60355;-69
2024/04/19 08:33:07;;;;;;;4.70;3.40;;;;;;;18.64;38.20;98899.55;107637;1257;73293;-70
2024/04/19 08:35:34;;;;;;;5.10;3.70;;;;;;;18.84;38.29;98908.96;107546;1257;70568;-70
2024/04/19 08:38:02;;;;;;;3.50;2.90;;;;;;;18.87;38.07;98908.27;107646;1257;73574;-70
2024/04/19 08:40:29;;;;;;;5.30;3.50;;;;;;;18.74;38.31;98915.02;107585;1257;60435;-70
2024/04/19 08:42:57;;;;;;;6.30;3.50;;;;;;;18.60;38.58;98920.08;107574;1257;60371;-70
2024/04/19 08:45:25;;;;;;;8.50;3.40;;;;;;;18.65;38.57;98925.52;107558;1263;75827;-70
2024/04/19 08:47:52;;;;;;;6.60;3.10;;;;;;;18.61;38.75;98921.29;107552;1257;72718;-70
2024/04/19 08:50:20;;;;;;;3.90;2.80;;;;;;;18.46;38.72;98930.09;107512;1263;74904;-69
2024/04/19 08:52:48;;;;;;;5.20;3.10;;;;;;;18.27;39.15;98935.69;107671;1263;62790;-69
2024/04/19 08:55:39;;;;;;;5.30;3.30;;;;;;;18.09;39.55;98940.27;107489;1257;60489;-70
2024/04/19 08:58:06;;;;;;;5.70;2.90;;;;;;;18.22;39.26;98943.02;107531;1257;73462;-69
2024/04/19 09:00:34;;;;;;;5.80;3.40;;;;;;;18.31;38.70;98941.66;107504;1257;72750;-69
2024/04/19 09:03:01;;;;;;;7.10;3.10;;;;;;;18.07;39.12;98954.68;107563;1257;72233;-69
2024/04/19 09:05:29;;;;;;;4.70;2.90;;;;;;;17.56;39.16;98965.34;107711;1257;63805;-68
2024/04/19 09:07:57;;;;;;;4.00;2.80;;;;;;;17.60;39.45;98967.81;107565;1258;61077;-66
2024/04/19 09:10:25;;;;;;;8.50;2.70;;;;;;;17.65;39.44;98969.05;107735;1257;76053;-70
2024/04/19 09:12:52;;;;;;;3.40;2.60;;;;;;;17.52;39.17;98974.54;107736;1258;69852;-70
2024/04/19 09:15:20;;;;;;;3.50;2.30;;;;;;;18.07;38.94;98972.61;107776;1257;73119;-68
2024/04/19 09:17:49;;;;;;;3.30;2.40;;;;;;;18.52;37.14;98983.90;107714;1260;61144;-69
2024/04/19 09:20:16;;;;;;;5.20;2.10;;;;;;;18.93;35.91;98973.56;107718;1256;61240;-70
2024/04/19 09:22:44;;;;;;;7.40;2.10;;;;;;;19.00;35.69;98978.59;107821;1257;73477;-70
2024/04/19 09:25:16;;;;;;;3.30;2.10;;;;;;;19.06;35.37;98978.46;107474;1258;71500;-70
2024/04/19 09:27:43;;;;;;;4.90;2.00;;;;;;;19.42;35.58;98979.42;107587;1257;74041;-69
2024/04/19 09:30:11;;;;;;;5.80;2.00;;;;;;;18.93;35.61;98978.69;107799;1261;61222;-70
2024/04/19 09:32:39;;;;;;;2.30;1.80;;;;;;;19.15;36.10;98984.73;107684;1260;60871;-69
2024/04/19 09:35:06;;;;;;;5.40;1.70;;;;;;;19.38;36.04;98987.67;107721;1258;74421;-70
2024/04/19 09:37:34;;;;;;;2.10;1.50;;;;;;;19.61;34.95;98991.44;107747;1260;70249;-70
2024/04/19 09:40:01;;;;;;;2.20;1.70;;;;;;;20.00;33.86;98989.57;107558;1256;74888;-69
2024/04/19 09:42:29;;;;;;;3.10;1.90;;;;;;;20.04;33.61;98992.40;107565;1256;61268;-69
2024/04/19 09:44:56;;;;;;;3.00;1.70;;;;;;;20.10;33.75;98995.20;107662;1262;60625;-71
2024/04/19 09:47:25;;;;;;;2.90;1.60;;;;;;;19.77;34.31;99004.00;107746;1256;74364;-70
2024/04/19 09:49:52;;;;;;;6.70;3.10;;;;;;;19.89;34.50;99005.15;107673;1256;70886;-69
2024/04/19 09:52:22;;;;;;;5.80;2.00;;;;;;;19.84;34.88;99009.95;107517;1256;74823;-71
2024/04/19 09:55:02;;;;;;;8.30;3.70;;;;;;;19.52;35.29;99019.67;107665;1258;62230;-70
2024/04/19 09:57:30;;;;;;;3.60;1.70;;;;;;;19.53;34.73;99023.08;107759;1257;61255;-70
2024/04/19 09:59:57;;;;;;;6.20;1.90;;;;;;;19.58;34.09;99028.16;107600;1256;74722;-70
2024/04/19 10:02:24;;;;;;;4.70;2.10;;;;;;;19.11;34.30;99040.20;107608;1258;72686;-70
2024/04/19 10:05:03;;;;;;;5.00;2.00;;;;;;;18.86;34.62;99041.98;107675;1258;72480;-69
2024/04/19 10:07:32;;;;;;;5.10;2.10;;;;;;;19.03;34.62;99048.21;107810;1256;62677;-69
2024/04/19 10:09:59;;;;;;;2.50;2.10;;;;;;;18.95;34.44;99047.70;107834;1256;61152;-70
2024/04/19 10:12:27;;;;;;;4.40;2.20;;;;;;;18.95;35.08;99059.80;107684;1258;74666;-69
2024/04/19 10:14:54;;;;;;;6.90;1.80;;;;;;;18.80;35.75;99065.08;107563;1257;70899;-71
2024/04/19 10:17:21;;;;;;;7.40;2.00;;;;;;;18.76;35.22;99079.61;107539;1257;73062;-68
2024/04/19 10:19:50;;;;;;;4.40;1.80;;;;;;;18.53;34.58;99084.98;107628;1257;61302;-69
2024/04/19 10:22:24;;;;;;;5.20;1.90;;;;;;;18.76;34.26;99086.59;107625;1257;61487;-68
2024/04/19 10:24:59;;;;;;;;;;;;;;;18.74;33.93;99088.15;107741;1257;73516;-69
2024/04/19 10:27:28;;;;;;;3.40;1.80;;;;;;;18.88;34.27;99083.20;107730;1257;69884;-69
2024/04/19 10:29:59;;;;;;;5.40;1.70;;;;;;;18.66;34.60;99085.13;107631;1258;72771;-67
2024/04/19 10:32:28;;;;;;;2.50;1.90;;;;;;;18.15;34.88;99094.62;107695;1258;62256;-69
2024/04/19 10:34:56;;;;;;;3.10;2.30;;;;;;;18.07;35.50;99096.91;107648;1262;62500;-69
2024/04/19 10:37:24;;;;;;;3.10;2.20;;;;;;;18.43;35.26;99098.42;107718;1257;73486;-68
2024/04/19 10:39:51;;;;;;;3.40;2.10;;;;;;;18.63;35.51;99101.14;107723;1257;70902;-71
2024/04/19 10:42:20;;;;;;;3.70;2.00;;;;;;;18.68;35.63;99104.80;107494;1259;71949;-72
2024/04/19 10:44:48;;;;;;;3.90;2.00;;;;;;;18.82;35.33;99103.10;107750;1257;61209;-69
2024/04/19 10:47:16;;;;;;;3.40;2.30;;;;;;;19.02;34.79;99104.05;107712;1257;61152;-68
2024/04/19 10:49:44;;;;;;;4.40;2.30;;;;;;;18.94;34.31;99102.63;107714;1257;73276;-70
2024/04/19 10:52:11;;;;;;;4.10;2.30;;;;;;;19.11;34.86;99109.61;107646;1257;70965;-73
2024/04/19 10:54:38;;;;;;;2.90;2.30;;;;;;;18.81;34.77;99119.77;107673;1257;72086;-70
2024/04/19 10:57:06;;;;;;;5.30;2.50;;;;;;;18.36;35.62;99126.59;107650;1257;62217;-71
2024/04/19 10:59:33;;;;;;;6.00;2.60;;;;;;;18.67;35.20;99131.05;107649;1257;61351;-69
2024/04/19 11:02:02;;;;;;;3.60;2.20;;;;;;;18.84;35.20;99130.71;107695;1257;73205;-71
2024/04/19 11:04:30;;;;;;;5.10;2.20;;;;;;;19.36;34.99;99122.11;107676;1257;68812;-71
2024/04/19 11:06:58;;;;;;;3.20;1.90;;;;;;;19.76;34.23;99129.42;107678;1257;72742;-69
2024/04/19 11:09:25;;;;;;;2.90;2.20;;;;;;;19.70;32.91;99129.96;107390;1257;61142;-70
2024/04/19 11:11:53;;;;;;;2.50;2.00;;;;;;;20.14;32.47;99128.77;107777;1256;61116;-70
2024/04/19 11:14:23;;;;;;;3.00;1.60;;;;;;;20.33;30.84;99133.44;107715;1256;76948;-70
2024/04/19 11:16:50;;;;;;;2.00;1.80;;;;;;;20.56;29.82;99137.04;107805;1257;69224;-71
2024/04/19 11:19:17;;;;;;;2.10;1.60;;;;;;;20.64;29.83;99134.11;107728;1256;72973;-71
2024/04/19 11:21:45;;;;;;;3.70;1.90;;;;;;;20.76;30.04;99138.92;107722;1256;61257;-71
2024/04/19 11:24:13;;;;;;;3.20;1.90;;;;;;;20.45;30.79;99153.39;107753;1256;61174;-69
2024/04/19 11:26:41;;;;;;;5.70;2.30;;;;;;;19.74;31.58;99156.01;107575;1256;73437;-70
2024/04/19 11:29:08;;;;;;;3.90;1.90;;;;;;;19.51;32.63;99158.77;107708;1256;70592;-70
2024/04/19 11:31:39;;;;;;;2.80;1.90;;;;;;;19.17;33.69;99164.84;107691;1256;74930;-71
2024/04/19 11:34:06;;;;;;;2.60;1.90;;;;;;;19.24;33.05;99167.86;107749;1256;61183;-71
2024/04/19 11:36:34;;;;;;;2.80;2.10;;;;;;;19.38;33.06;99165.77;107842;1256;62487;-70
2024/04/19 11:39:02;;;;;;;3.90;2.10;;;;;;;19.33;32.84;99173.51;107740;1256;76368;-70
2024/04/19 11:41:30;;;;;;;5.90;2.10;;;;;;;19.42;32.42;99165.04;107737;1256;68834;-70
2024/04/19 11:43:58;;;;;;;2.80;2.00;;;;;;;19.67;31.54;99162.49;107758;1257;74878;-71
2024/04/19 11:46:28;;;;;;;4.00;1.90;;;;;;;20.13;31.27;99163.35;107645;1260;61450;-70
2024/04/19 11:48:58;;;;;;;2.50;1.90;;;;;;;20.75;30.44;99160.73;107801;1256;61648;-70